Time;durP1;ratioP1;P1;durP2;ratioP2;P2;SDS_P1;SDS_P2;PMS_P1;PMS_P2;Temp;Humidity;BMP_temperature;BMP_pressure;BME280_temperature;BME280_humidity;BME280_pressure;Samples;Min_cycle;Max_cycle;Signal;HPM_P1;HPM_P2
2024/02/18 00:00:44;;;;;;;3.93;2.27;;;7.10;99.90;;;;;;5011222;28;20430;-65
2024/02/18 00:03:10;;;;;;;10.43;2.80;;;7.10;99.90;;;;;;5011116;28;20214;-65
2024/02/18 00:05:35;;;;;;;5.40;2.63;;;7.10;99.90;;;;;;5010935;28;20184;-70
2024/02/18 00:08:02;;;;;;;7.83;2.60;;;7.10;99.90;;;;;;5009555;28;20229;-65
2024/02/18 00:10:28;;;;;;;3.10;2.40;;;7.10;99.90;;;;;;5003107;28;20188;-65
2024/02/18 00:12:54;;;;;;;6.83;2.80;;;7.20;99.90;;;;;;4994348;28;20550;-64
2024/02/18 00:15:19;;;;;;;4.40;2.93;;;7.20;99.90;;;;;;5011241;28;20181;-64
2024/02/18 00:17:45;;;;;;;3.87;2.80;;;7.10;99.90;;;;;;5011549;28;20442;-65
2024/02/18 00:20:11;;;;;;;6.13;2.70;;;7.20;99.90;;;;;;5010878;28;20567;-64
2024/02/18 00:22:37;;;;;;;7.77;2.80;;;7.20;99.90;;;;;;5010819;28;20188;-65
2024/02/18 00:25:06;;;;;;;6.00;2.50;;;7.20;99.90;;;;;;5011050;28;20436;-64
2024/02/18 00:27:32;;;;;;;7.80;3.03;;;7.10;99.90;;;;;;5010667;28;20443;-65
2024/02/18 00:29:58;;;;;;;4.60;2.50;;;7.10;99.90;;;;;;5010595;28;20953;-72
2024/02/18 00:32:23;;;;;;;6.70;2.70;;;7.10;99.90;;;;;;5002245;28;20455;-64
2024/02/18 00:34:49;;;;;;;4.53;2.97;;;7.10;99.90;;;;;;5010793;28;20180;-65
2024/02/18 00:37:15;;;;;;;6.40;3.17;;;7.10;99.90;;;;;;5002092;28;20207;-65
2024/02/18 00:39:40;;;;;;;9.57;4.10;;;7.10;99.90;;;;;;5011477;28;20235;-65
2024/02/18 00:42:08;;;;;;;10.13;4.13;;;7.10;99.90;;;;;;5010848;28;20544;-64
2024/02/18 00:44:34;;;;;;;7.27;3.43;;;7.10;99.90;;;;;;5011896;28;20275;-66
2024/02/18 00:47:00;;;;;;;3.10;2.80;;;7.20;99.90;;;;;;5014071;28;20997;-66
2024/02/18 00:49:26;;;;;;;6.37;4.07;;;7.20;99.90;;;;;;5010479;28;20430;-66
2024/02/18 00:51:52;;;;;;;6.67;4.20;;;7.10;99.90;;;;;;5008713;28;20469;-65
2024/02/18 00:54:18;;;;;;;11.80;5.07;;;7.10;99.90;;;;;;5007214;28;20186;-65
2024/02/18 00:56:46;;;;;;;7.50;4.00;;;7.10;99.90;;;;;;5007716;28;20839;-66
2024/02/18 00:59:12;;;;;;;7.50;4.53;;;7.10;99.90;;;;;;5006900;28;20451;-65
2024/02/18 01:01:38;;;;;;;8.50;3.80;;;6.90;99.90;;;;;;5008992;28;20426;-65
2024/02/18 01:04:04;;;;;;;7.13;4.17;;;6.90;99.90;;;;;;5008207;28;20978;-65
2024/02/18 01:06:30;;;;;;;4.10;3.20;;;7.00;99.90;;;;;;5006459;28;20183;-65
2024/02/18 01:08:55;;;;;;;5.03;3.70;;;7.00;99.90;;;;;;5007967;28;20493;-66
2024/02/18 01:11:21;;;;;;;7.13;5.13;;;7.10;99.90;;;;;;5008362;28;20213;-64
2024/02/18 01:13:47;;;;;;;10.40;3.47;;;7.00;99.90;;;;;;5008766;28;20198;-64
2024/02/18 01:16:13;;;;;;;9.30;4.47;;;7.00;99.90;;;;;;5009123;28;20196;-65
2024/02/18 01:18:42;;;;;;;7.57;4.50;;;7.00;99.90;;;;;;5007456;28;20277;-65
2024/02/18 01:21:08;;;;;;;9.20;4.80;;;7.00;99.90;;;;;;5007980;28;20181;-64
2024/02/18 01:23:35;;;;;;;6.27;4.00;;;7.00;99.90;;;;;;5006650;28;20424;-63
2024/02/18 01:26:00;;;;;;;6.33;4.73;;;7.00;99.90;;;;;;5008592;28;20427;-65
2024/02/18 01:28:26;;;;;;;5.53;4.00;;;7.00;99.90;;;;;;5008798;28;20444;-68
2024/02/18 01:30:52;;;;;;;6.13;3.30;;;7.00;99.90;;;;;;5006146;28;20210;-65
2024/02/18 01:33:17;;;;;;;5.77;3.47;;;7.00;99.90;;;;;;5008095;28;20211;-65
2024/02/18 01:35:43;;;;;;;7.30;3.60;;;7.00;99.90;;;;;;4991551;28;20180;-65
2024/02/18 01:38:09;;;;;;;7.50;4.90;;;7.00;99.90;;;;;;4991780;28;20928;-65
2024/02/18 01:40:35;;;;;;;7.23;3.53;;;7.00;99.90;;;;;;4991078;28;20276;-64
2024/02/18 01:43:02;;;;;;;4.37;3.00;;;7.00;99.90;;;;;;4990036;28;20419;-64
2024/02/18 01:45:28;;;;;;;5.80;3.30;;;7.00;99.90;;;;;;5008639;28;20866;-64
2024/02/18 01:47:53;;;;;;;8.77;4.30;;;6.90;99.90;;;;;;5009854;28;20532;-65
2024/02/18 01:50:19;;;;;;;8.47;4.00;;;6.90;99.90;;;;;;5009518;28;20187;-64
2024/02/18 01:52:46;;;;;;;8.53;4.40;;;7.00;99.90;;;;;;5007202;28;20202;-65
2024/02/18 01:55:12;;;;;;;9.97;4.33;;;7.00;99.90;;;;;;5008549;28;20178;-64
2024/02/18 01:57:40;;;;;;;5.20;3.33;;;7.00;99.90;;;;;;5006799;28;20493;-64
2024/02/18 02:00:07;;;;;;;9.57;3.60;;;7.10;99.90;;;;;;5006997;28;20422;-65
2024/02/18 02:02:33;;;;;;;5.63;3.20;;;6.90;99.90;;;;;;5008877;28;20433;-65
2024/02/18 02:04:59;;;;;;;4.60;2.73;;;7.00;99.90;;;;;;5012719;28;20439;-64
2024/02/18 02:07:24;;;;;;;6.60;2.53;;;7.10;99.90;;;;;;5010251;28;20499;-65
2024/02/18 02:09:51;;;;;;;9.67;2.90;;;7.20;99.90;;;;;;5013459;28;20462;-65
2024/02/18 02:12:16;;;;;;;13.07;4.37;;;7.80;99.90;;;;;;5012557;28;20305;-65
2024/02/18 02:14:42;;;;;;;6.27;3.23;;;7.90;99.90;;;;;;5012634;28;20417;-65
2024/02/18 02:17:10;;;;;;;9.77;3.23;;;7.80;99.90;;;;;;5013140;28;20543;-64
2024/02/18 02:19:36;;;;;;;7.40;3.30;;;7.70;99.90;;;;;;5013074;28;20680;-64
2024/02/18 02:22:01;;;;;;;4.97;2.77;;;7.50;99.90;;;;;;5013050;28;20436;-64
2024/02/18 02:24:27;;;;;;;13.40;3.87;;;7.70;99.90;;;;;;5013003;28;20195;-64
2024/02/18 02:26:55;;;;;;;4.30;2.90;;;7.60;99.90;;;;;;5013100;28;20269;-64
2024/02/18 02:29:21;;;;;;;4.90;3.03;;;7.60;99.90;;;;;;5010948;28;20199;-64
2024/02/18 02:31:47;;;;;;;4.50;2.73;;;7.70;99.90;;;;;;5012931;28;20422;-64
2024/02/18 02:34:14;;;;;;;5.90;2.63;;;7.60;99.90;;;;;;5014438;28;20411;-67
2024/02/18 02:36:40;;;;;;;8.13;3.00;;;7.70;99.90;;;;;;5001348;28;20552;-65
2024/02/18 02:39:07;;;;;;;5.33;3.60;;;7.70;99.90;;;;;;5012483;28;20789;-66
2024/02/18 02:41:34;;;;;;;13.10;2.83;;;7.60;99.90;;;;;;5010264;28;20417;-68
2024/02/18 02:43:59;;;;;;;3.30;2.13;;;7.50;99.90;;;;;;5006676;28;20483;-66
2024/02/18 02:46:25;;;;;;;9.60;2.80;;;7.60;99.90;;;;;;5013231;28;20840;-68
2024/02/18 02:48:51;;;;;;;8.30;2.90;;;7.50;99.90;;;;;;5012411;28;20448;-68
2024/02/18 02:51:19;;;;;;;4.50;2.67;;;7.30;99.90;;;;;;5012384;28;20719;-65
2024/02/18 02:53:45;;;;;;;5.30;3.00;;;7.30;99.90;;;;;;5012138;28;20669;-69
2024/02/18 02:56:11;;;;;;;14.30;2.87;;;7.30;99.90;;;;;;5012917;28;20444;-67
2024/02/18 02:58:36;;;;;;;7.83;3.10;;;7.30;99.90;;;;;;5011676;28;20445;-67
2024/02/18 03:01:02;;;;;;;10.50;2.80;;;7.10;99.90;;;;;;5012152;28;20217;-67
2024/02/18 03:03:28;;;;;;;4.30;2.43;;;6.90;99.90;;;;;;5010931;28;20590;-67
2024/02/18 03:05:53;;;;;;;4.90;3.00;;;6.80;99.90;;;;;;5012223;28;20321;-66
2024/02/18 03:08:19;;;;;;;6.43;2.30;;;6.90;99.90;;;;;;5009334;28;20201;-65
2024/02/18 03:10:45;;;;;;;5.10;2.60;;;7.00;99.90;;;;;;5012624;28;20263;-65
2024/02/18 03:13:10;;;;;;;11.63;3.30;;;6.90;99.90;;;;;;5011735;28;20297;-69
2024/02/18 03:15:36;;;;;;;4.77;2.53;;;6.90;99.90;;;;;;5012507;28;20185;-70
2024/02/18 03:18:03;;;;;;;7.33;3.03;;;6.80;99.90;;;;;;5011663;28;20523;-69
2024/02/18 03:20:29;;;;;;;8.83;2.70;;;6.90;99.90;;;;;;5012110;28;20210;-67
2024/02/18 03:22:55;;;;;;;5.43;2.43;;;6.60;99.90;;;;;;5011608;28;20903;-62
2024/02/18 03:25:21;;;;;;;7.60;2.10;;;6.50;99.90;;;;;;5010595;28;20432;-63
2024/02/18 03:27:46;;;;;;;5.70;2.57;;;6.10;99.90;;;;;;5011263;28;20436;-64
2024/02/18 03:30:12;;;;;;;19.03;10.50;;;6.00;99.90;;;;;;5011834;28;20176;-65
2024/02/18 03:32:38;;;;;;;5.10;2.90;;;6.20;99.90;;;;;;5011524;28;21798;-64
2024/02/18 03:35:05;;;;;;;8.83;2.43;;;6.20;99.90;;;;;;4993879;28;20443;-64
2024/02/18 03:37:33;;;;;;;8.87;2.43;;;6.00;99.90;;;;;;5009123;28;20200;-65
2024/02/18 03:39:59;;;;;;;4.67;1.90;;;6.00;99.90;;;;;;5005581;28;20462;-65
2024/02/18 03:42:25;;;;;;;7.27;2.83;;;5.80;99.90;;;;;;5012055;28;20460;-65
2024/02/18 03:44:50;;;;;;;6.67;2.03;;;5.80;99.90;;;;;;5011463;28;20192;-67
2024/02/18 03:47:17;;;;;;;4.27;2.20;;;5.70;99.90;;;;;;5010942;28;20208;-65
2024/02/18 03:49:45;;;;;;;6.30;2.23;;;5.80;99.90;;;;;;5009768;28;20252;-64
2024/02/18 03:52:11;;;;;;;6.77;2.50;;;5.70;99.90;;;;;;5007204;28;20520;-64
2024/02/18 03:54:39;;;;;;;5.90;2.43;;;5.80;99.90;;;;;;5010777;28;20434;-65
2024/02/18 03:57:05;;;;;;;4.50;2.60;;;5.90;99.90;;;;;;5011479;28;20283;-64
2024/02/18 03:59:37;;;;;;;6.43;2.07;;;6.00;99.90;;;;;;5010642;28;20886;-64
2024/02/18 04:02:06;;;;;;;7.07;1.70;;;6.00;99.90;;;;;;5009065;28;20439;-64
2024/02/18 04:04:34;;;;;;;5.47;2.40;;;5.90;99.90;;;;;;5010882;28;20480;-64
2024/02/18 04:07:00;;;;;;;8.90;2.40;;;5.70;99.90;;;;;;5011098;28;20467;-64
2024/02/18 04:09:26;;;;;;;3.40;1.97;;;5.60;99.90;;;;;;5010610;28;20925;-64
2024/02/18 04:11:57;;;;;;;5.40;2.20;;;5.40;99.90;;;;;;5009609;28;20420;-65
2024/02/18 04:14:27;;;;;;;9.57;2.20;;;5.40;99.90;;;;;;5010551;28;20271;-65
2024/02/18 04:17:01;;;;;;;6.87;2.63;;;5.40;99.90;;;;;;5003750;28;21040;-64
2024/02/18 04:19:32;;;;;;;3.03;1.90;;;5.50;99.90;;;;;;5009616;28;20461;-65
2024/02/18 04:21:58;;;;;;;4.83;1.80;;;5.60;99.90;;;;;;5010555;28;20430;-65
2024/02/18 04:24:24;;;;;;;6.40;2.30;;;5.60;99.90;;;;;;5002560;28;20420;-64
2024/02/18 04:26:49;;;;;;;3.40;2.10;;;5.50;99.90;;;;;;5012971;28;20212;-65
2024/02/18 04:29:15;;;;;;;9.10;2.80;;;5.30;99.90;;;;;;5010868;28;20184;-66
2024/02/18 04:31:41;;;;;;;10.50;2.70;;;5.40;99.90;;;;;;5010179;28;20621;-65
2024/02/18 04:34:06;;;;;;;6.73;2.30;;;5.30;99.90;;;;;;5010584;28;20180;-65
2024/02/18 04:36:32;;;;;;;6.70;2.40;;;5.30;99.90;;;;;;5016405;28;20436;-65
2024/02/18 04:38:57;;;;;;;6.47;2.70;;;5.10;99.90;;;;;;5010450;28;20531;-65
2024/02/18 04:41:23;;;;;;;7.53;2.27;;;5.10;99.90;;;;;;5010461;28;20509;-65
2024/02/18 04:43:49;;;;;;;8.30;2.10;;;5.10;99.90;;;;;;5006886;28;20268;-65
2024/02/18 04:46:14;;;;;;;4.07;2.10;;;5.00;99.90;;;;;;5005682;28;20199;-64
2024/02/18 04:48:40;;;;;;;5.50;3.03;;;5.10;99.90;;;;;;5009813;28;20310;-65
2024/02/18 04:51:06;;;;;;;7.90;3.00;;;5.10;99.90;;;;;;5004657;28;20181;-65
2024/02/18 04:53:31;;;;;;;4.00;2.07;;;5.30;99.90;;;;;;5007809;28;20643;-64
2024/02/18 04:55:57;;;;;;;4.53;2.20;;;5.30;99.90;;;;;;5010566;28;20192;-64
2024/02/18 04:58:23;;;;;;;3.60;2.10;;;5.30;99.90;;;;;;5010429;28;20204;-65
2024/02/18 05:00:49;;;;;;;5.13;2.10;;;5.40;99.90;;;;;;4968778;28;20631;-67
2024/02/18 05:03:14;;;;;;;6.30;2.27;;;5.30;99.90;;;;;;4992308;28;20427;-63
2024/02/18 05:05:40;;;;;;;5.17;3.57;;;5.40;99.90;;;;;;5009881;28;20192;-63
2024/02/18 05:08:05;;;;;;;6.37;3.40;;;5.40;99.90;;;;;;5011923;28;20218;-63
2024/02/18 05:10:31;;;;;;;16.53;4.23;;;5.50;99.90;;;;;;5012331;28;20603;-60
2024/02/18 05:12:56;;;;;;;4.90;2.47;;;5.60;99.90;;;;;;5009862;28;20613;-55
2024/02/18 05:15:24;;;;;;;10.90;3.50;;;5.50;99.90;;;;;;5009957;28;20188;-60
2024/02/18 05:17:49;;;;;;;6.47;2.53;;;5.60;99.90;;;;;;5002059;28;20207;-57
2024/02/18 05:20:15;;;;;;;5.77;3.20;;;5.70;99.90;;;;;;5009012;28;20422;-57
2024/02/18 05:22:41;;;;;;;6.00;3.57;;;5.40;99.90;;;;;;5009204;28;20550;-60
2024/02/18 05:25:07;;;;;;;4.20;2.43;;;5.60;99.90;;;;;;5010000;28;20275;-59
2024/02/18 05:27:33;;;;;;;2.83;2.53;;;5.60;99.90;;;;;;5009193;28;20214;-58
2024/02/18 05:29:58;;;;;;;3.87;2.10;;;5.40;99.90;;;;;;5009651;28;20415;-59
2024/02/18 05:32:25;;;;;;;7.77;3.70;;;5.70;99.90;;;;;;5009636;28;20773;-59
2024/02/18 05:34:50;;;;;;;8.60;2.67;;;5.70;99.90;;;;;;5009513;28;20177;-59
2024/02/18 05:37:16;;;;;;;4.80;2.70;;;5.60;99.90;;;;;;5009231;28;20450;-59
2024/02/18 05:39:42;;;;;;;4.70;2.50;;;5.60;99.90;;;;;;5009801;28;20187;-59
2024/02/18 05:42:07;;;;;;;7.43;2.57;;;5.80;99.90;;;;;;5011491;28;20239;-59
2024/02/18 05:44:33;;;;;;;3.70;2.20;;;5.70;99.90;;;;;;5011854;28;20191;-62
2024/02/18 05:46:59;;;;;;;5.90;2.30;;;5.50;99.90;;;;;;5013124;28;20223;-62
2024/02/18 05:49:24;;;;;;;5.80;2.07;;;5.30;99.90;;;;;;5013974;28;20229;-58
2024/02/18 05:51:54;;;;;;;12.60;4.30;;;5.30;99.90;;;;;;5012633;28;20283;-60
2024/02/18 05:54:20;;;;;;;6.03;3.23;;;5.20;99.90;;;;;;5014064;28;20208;-61
2024/02/18 05:56:46;;;;;;;3.43;1.87;;;5.20;99.90;;;;;;5013650;28;20431;-60
2024/02/18 05:59:12;;;;;;;4.70;2.87;;;5.40;99.90;;;;;;5012941;28;20506;-60
2024/02/18 06:01:38;;;;;;;6.60;2.77;;;5.90;99.90;;;;;;5012974;28;20883;-60
2024/02/18 06:04:03;;;;;;;12.50;2.63;;;5.80;99.90;;;;;;5013133;28;20218;-60
2024/02/18 06:06:30;;;;;;;6.93;2.17;;;5.70;99.90;;;;;;5000118;28;20192;-62
2024/02/18 06:08:56;;;;;;;6.30;2.47;;;5.60;99.90;;;;;;5013539;28;20204;-60
2024/02/18 06:11:21;;;;;;;5.53;1.50;;;5.80;99.90;;;;;;5013365;28;20771;-62
2024/02/18 06:13:47;;;;;;;4.07;2.47;;;5.80;99.90;;;;;;5012572;28;20201;-61
2024/02/18 06:16:13;;;;;;;5.50;2.70;;;5.70;99.90;;;;;;5013414;28;20180;-58
2024/02/18 06:18:39;;;;;;;4.33;2.13;;;5.60;99.90;;;;;;5012626;28;20266;-60
2024/02/18 06:21:05;;;;;;;4.33;2.27;;;5.60;99.90;;;;;;5002264;28;20526;-62
2024/02/18 06:23:30;;;;;;;4.30;2.63;;;5.70;99.90;;;;;;5009314;28;20188;-62
2024/02/18 06:25:56;;;;;;;3.83;2.13;;;6.00;99.90;;;;;;5012323;28;20735;-62
2024/02/18 06:28:21;;;;;;;5.33;1.90;;;6.10;99.90;;;;;;5011961;28;20632;-61
2024/02/18 06:30:47;;;;;;;6.83;2.30;;;6.20;99.90;;;;;;5012168;28;20198;-60
2024/02/18 06:33:13;;;;;;;3.60;2.47;;;5.70;99.90;;;;;;5008580;28;20833;-60
2024/02/18 06:35:38;;;;;;;6.07;2.43;;;5.40;99.90;;;;;;5012600;28;20176;-61
2024/02/18 06:38:04;;;;;;;4.40;2.10;;;5.30;99.90;;;;;;5005650;28;20244;-62
2024/02/18 06:40:29;;;;;;;7.77;2.30;;;5.20;99.90;;;;;;5012000;28;20222;-64
2024/02/18 06:42:55;;;;;;;7.80;2.33;;;5.20;99.90;;;;;;5007386;28;20236;-59
2024/02/18 06:45:21;;;;;;;7.03;2.73;;;5.20;99.90;;;;;;5008129;28;20192;-60
2024/02/18 06:47:47;;;;;;;4.60;2.60;;;5.20;99.90;;;;;;5008553;28;20370;-62
2024/02/18 06:50:14;;;;;;;12.37;2.93;;;5.20;99.90;;;;;;5011191;28;20214;-61
2024/02/18 06:52:39;;;;;;;7.63;2.67;;;5.30;99.90;;;;;;5008720;28;20457;-59
2024/02/18 06:55:05;;;;;;;10.53;3.30;;;5.30;99.90;;;;;;5006250;28;20795;-59
2024/02/18 06:57:31;;;;;;;12.37;2.40;;;5.30;99.90;;;;;;5011026;28;20284;-59
2024/02/18 06:59:58;;;;;;;3.80;2.20;;;5.30;99.90;;;;;;5012890;28;20427;-57
2024/02/18 07:02:23;;;;;;;6.27;2.80;;;5.40;99.90;;;;;;5012656;28;20518;-60
2024/02/18 07:04:49;;;;;;;3.70;2.13;;;5.40;99.90;;;;;;5012542;28;20529;-58
2024/02/18 07:07:15;;;;;;;7.63;2.07;;;5.50;99.90;;;;;;5012380;28;20236;-62
2024/02/18 07:09:42;;;;;;;4.57;2.33;;;5.60;99.90;;;;;;5011887;28;20627;-62
2024/02/18 07:12:08;;;;;;;11.07;3.40;;;5.60;99.90;;;;;;5011434;28;20464;-60
2024/02/18 07:14:34;;;;;;;5.40;2.40;;;5.60;99.90;;;;;;5012301;28;20519;-61
2024/02/18 07:17:00;;;;;;;8.30;2.80;;;5.70;99.90;;;;;;5012615;28;20443;-60
2024/02/18 07:19:26;;;;;;;5.90;2.87;;;5.70;99.90;;;;;;5012492;28;20184;-61
2024/02/18 07:21:51;;;;;;;7.63;3.03;;;5.60;99.90;;;;;;5012217;28;20903;-61
2024/02/18 07:24:17;;;;;;;8.80;2.60;;;5.70;99.90;;;;;;5012040;28;20280;-60
2024/02/18 07:26:44;;;;;;;13.77;3.17;;;5.80;99.90;;;;;;5011359;28;20205;-61
2024/02/18 07:29:09;;;;;;;6.63;3.50;;;5.90;99.90;;;;;;5067486;22;21071;-66
2024/02/18 07:31:36;;;;;;;5.87;3.10;;;5.90;99.90;;;;;;5072686;28;20179;-64
2024/02/18 07:34:04;;;;;;;10.53;3.47;;;6.00;99.90;;;;;;5069508;28;20215;-65
2024/02/18 07:36:30;;;;;;;9.83;3.50;;;6.10;99.90;;;;;;5064482;28;20449;-65
2024/02/18 07:38:56;;;;;;;6.33;4.03;;;6.10;99.90;;;;;;5069690;28;20527;-66
2024/02/18 07:41:24;;;;;;;6.67;4.10;;;6.20;99.90;;;;;;5072836;28;20504;-66
2024/02/18 07:43:49;;;;;;;12.27;3.47;;;6.30;99.90;;;;;;5072543;28;20650;-65
2024/02/18 07:46:15;;;;;;;8.07;4.47;;;6.50;99.90;;;;;;5072365;28;20463;-63
2024/02/18 07:48:40;;;;;;;11.03;4.30;;;6.60;99.90;;;;;;5072114;28;20198;-64
2024/02/18 07:51:06;;;;;;;4.37;2.63;;;6.50;99.90;;;;;;5070852;28;20212;-65
2024/02/18 07:53:32;;;;;;;5.10;2.67;;;6.80;99.90;;;;;;5068190;28;20203;-65
2024/02/18 07:55:57;;;;;;;6.97;2.37;;;7.00;99.90;;;;;;5063872;28;20180;-64
2024/02/18 07:58:23;;;;;;;8.73;2.97;;;7.40;99.90;;;;;;5071363;28;20300;-65
2024/02/18 08:00:48;;;;;;;11.30;2.90;;;7.30;99.90;;;;;;5071532;28;20181;-65
2024/02/18 08:03:14;;;;;;;9.73;2.83;;;7.50;99.90;;;;;;5070876;28;20232;-64
2024/02/18 08:05:41;;;;;;;8.87;2.80;;;7.40;99.90;;;;;;5061844;28;20188;-64
2024/02/18 08:08:07;;;;;;;3.17;2.50;;;7.30;99.90;;;;;;5069187;28;20288;-65
2024/02/18 08:10:32;;;;;;;6.30;3.13;;;7.50;99.90;;;;;;5070667;28;21016;-65
2024/02/18 08:12:58;;;;;;;4.83;2.70;;;7.60;99.90;;;;;;5064056;28;20280;-65
2024/02/18 08:15:24;;;;;;;9.60;2.80;;;7.50;99.90;;;;;;5071430;28;20178;-64
2024/02/18 08:17:50;;;;;;;6.00;2.77;;;7.40;99.90;;;;;;5071455;28;20216;-63
2024/02/18 08:20:15;;;;;;;6.90;2.80;;;7.30;99.90;;;;;;5069627;28;20435;-63
2024/02/18 08:22:41;;;;;;;8.00;3.20;;;7.20;99.90;;;;;;5069688;28;20188;-65
2024/02/18 08:25:07;;;;;;;6.20;2.70;;;7.20;99.90;;;;;;5071370;28;20254;-65
2024/02/18 08:27:32;;;;;;;12.10;3.07;;;7.10;99.90;;;;;;5071208;28;20215;-65
2024/02/18 08:29:58;;;;;;;7.17;3.50;;;7.30;99.90;;;;;;5071120;28;20313;-65
2024/02/18 08:32:24;;;;;;;8.93;3.77;;;7.20;99.90;;;;;;5071062;28;20201;-63
2024/02/18 08:34:49;;;;;;;11.53;3.10;;;7.30;99.90;;;;;;5068884;28;20177;-64
2024/02/18 08:37:15;;;;;;;7.90;3.13;;;7.40;99.90;;;;;;5074691;28;20186;-65
2024/02/18 08:39:41;;;;;;;8.43;3.87;;;7.40;99.90;;;;;;5071121;28;20196;-65
2024/02/18 08:42:07;;;;;;;8.03;3.10;;;7.50;99.90;;;;;;5065334;28;20186;-64
2024/02/18 08:44:32;;;;;;;6.40;2.87;;;7.50;99.90;;;;;;5070888;28;20492;-65
2024/02/18 08:46:58;;;;;;;15.47;3.43;;;7.50;99.90;;;;;;5070758;28;20183;-65
2024/02/18 08:49:23;;;;;;;6.97;2.80;;;7.60;99.90;;;;;;5065864;28;20213;-64
2024/02/18 08:51:49;;;;;;;8.60;3.47;;;7.70;99.90;;;;;;5068885;28;20215;-65
2024/02/18 08:54:15;;;;;;;6.53;3.10;;;7.70;99.90;;;;;;5069000;28;20702;-65
2024/02/18 08:56:40;;;;;;;4.07;3.20;;;7.50;99.90;;;;;;5066384;28;20510;-65
2024/02/18 08:59:09;;;;;;;10.77;3.37;;;7.60;99.90;;;;;;5071220;28;20194;-64
2024/02/18 09:01:35;;;;;;;7.13;2.70;;;7.80;99.90;;;;;;5070029;28;20180;-64
2024/02/18 09:04:01;;;;;;;10.90;4.23;;;7.80;99.90;;;;;;5059662;28;20414;-63
2024/02/18 09:06:27;;;;;;;5.60;3.30;;;8.10;99.90;;;;;;5070532;28;20224;-63
2024/02/18 09:08:53;;;;;;;15.03;4.23;;;8.10;99.90;;;;;;5070651;28;20444;-64
2024/02/18 09:11:19;;;;;;;7.83;2.90;;;8.40;99.90;;;;;;5070744;28;20443;-64
2024/02/18 09:13:44;;;;;;;6.97;2.60;;;8.50;99.90;;;;;;5071011;28;20271;-64
2024/02/18 09:16:10;;;;;;;4.80;2.40;;;8.80;99.90;;;;;;5070507;28;20201;-65
2024/02/18 09:18:37;;;;;;;7.20;2.90;;;8.60;99.90;;;;;;5073082;28;20271;-65
2024/02/18 09:21:03;;;;;;;8.33;2.40;;;8.60;99.90;;;;;;5072368;28;20186;-66
2024/02/18 09:23:28;;;;;;;7.57;2.60;;;8.80;99.90;;;;;;5069252;28;20423;-66
2024/02/18 09:25:54;;;;;;;7.70;2.53;;;8.90;99.90;;;;;;5076464;28;20435;-65
2024/02/18 09:28:20;;;;;;;4.77;2.47;;;9.00;99.90;;;;;;5076870;28;20651;-66
2024/02/18 09:30:46;;;;;;;6.07;2.57;;;8.50;99.90;;;;;;5076084;28;20209;-66
2024/02/18 09:33:11;;;;;;;9.60;3.07;;;8.50;99.90;;;;;;5076612;28;20483;-66
2024/02/18 09:35:37;;;;;;;3.87;2.20;;;8.50;99.90;;;;;;5072353;28;20178;-64
2024/02/18 09:38:08;;;;;;;8.20;2.87;;;8.20;99.90;;;;;;5077114;28;20679;-66
2024/02/18 09:40:36;;;;;;;8.73;3.03;;;8.00;99.90;;;;;;5072934;28;20174;-66
2024/02/18 09:43:01;;;;;;;2.77;2.27;;;8.00;99.90;;;;;;5076329;28;20485;-65
2024/02/18 09:45:29;;;;;;;6.30;2.43;;;8.10;99.90;;;;;;5075981;28;20430;-66
2024/02/18 09:47:56;;;;;;;4.80;2.60;;;8.20;99.90;;;;;;5076968;28;20285;-65
2024/02/18 09:50:22;;;;;;;5.33;3.33;;;8.20;99.90;;;;;;5076997;28;20425;-66
2024/02/18 09:52:49;;;;;;;5.63;2.53;;;8.30;99.90;;;;;;5076709;28;20459;-65
2024/02/18 09:55:17;;;;;;;6.50;2.40;;;8.40;99.90;;;;;;5067196;28;20464;-66
2024/02/18 09:57:42;;;;;;;11.50;2.37;;;8.20;99.90;;;;;;5072662;28;20746;-65
2024/02/18 10:00:09;;;;;;;4.90;2.57;;;8.20;99.90;;;;;;5076634;28;20439;-65
2024/02/18 10:02:35;;;;;;;3.47;2.80;;;8.20;99.90;;;;;;5077052;28;20194;-66
2024/02/18 10:05:02;;;;;;;6.33;2.63;;;8.20;99.90;;;;;;5076907;28;20432;-65
2024/02/18 10:07:28;;;;;;;7.90;2.80;;;8.10;99.90;;;;;;5069404;28;20419;-65
2024/02/18 10:09:54;;;;;;;5.53;2.60;;;8.30;99.90;;;;;;5074000;28;20427;-64
2024/02/18 10:12:20;;;;;;;9.53;2.30;;;8.40;99.90;;;;;;5076885;28;20197;-65
2024/02/18 10:15:03;;;;;;;4.97;2.90;;;8.50;99.90;;;;;;5077158;28;20182;-63
2024/02/18 10:17:29;;;;;;;12.80;3.07;;;8.40;99.90;;;;;;5077289;28;20516;-65
2024/02/18 10:19:55;;;;;;;8.60;2.70;;;8.60;99.90;;;;;;5074411;28;20775;-66
2024/02/18 10:22:25;;;;;;;8.33;3.20;;;8.70;99.90;;;;;;5076504;28;20420;-66
2024/02/18 10:24:51;;;;;;;5.23;2.50;;;8.70;99.90;;;;;;5068953;28;20437;-65
2024/02/18 10:27:18;;;;;;;4.23;2.63;;;8.70;99.90;;;;;;5063462;28;20435;-65
2024/02/18 10:29:47;;;;;;;8.20;2.63;;;8.60;99.90;;;;;;5073056;28;20878;-63
2024/02/18 10:32:17;;;;;;;3.83;2.70;;;8.70;99.90;;;;;;5072719;28;20452;-65
2024/02/18 10:34:44;;;;;;;6.83;3.20;;;8.70;99.90;;;;;;5071529;28;20429;-64
2024/02/18 10:37:20;;;;;;;6.50;2.90;;;8.90;99.90;;;;;;5073835;28;20416;-64
2024/02/18 10:39:49;;;;;;;4.13;2.80;;;8.90;99.90;;;;;;5065217;28;20444;-66
2024/02/18 10:42:18;;;;;;;6.00;2.80;;;8.80;99.90;;;;;;5072756;28;20420;-65
2024/02/18 10:44:44;;;;;;;5.53;2.67;;;9.00;99.90;;;;;;5071966;28;20474;-65
2024/02/18 10:47:14;;;;;;;5.03;2.87;;;8.80;99.90;;;;;;5072627;28;20974;-65
2024/02/18 10:49:44;;;;;;;7.10;3.60;;;9.00;99.90;;;;;;5071265;28;20460;-66
2024/02/18 10:52:37;;;;;;;6.70;2.67;;;9.20;99.90;;;;;;5071252;28;20451;-62
2024/02/18 10:55:12;;;;;;;4.10;2.63;;;9.00;99.90;;;;;;5066498;28;20468;-65
2024/02/18 10:58:04;;;;;;;8.13;3.00;;;9.50;99.90;;;;;;5070803;28;20431;-66
2024/02/18 11:00:36;;;;;;;5.97;2.30;;;9.60;99.90;;;;;;5064962;28;20420;-66
2024/02/18 11:03:12;;;;;;;5.00;3.50;;;9.80;99.90;;;;;;5072091;28;20490;-66
2024/02/18 11:05:39;;;;;;;3.93;2.80;;;10.10;99.90;;;;;;5071107;28;20496;-65
2024/02/18 11:08:09;;;;;;;5.20;2.97;;;9.90;99.90;;;;;;5065571;28;20799;-64
2024/02/18 11:10:36;;;;;;;5.30;3.13;;;10.00;99.90;;;;;;5062232;28;20421;-63
2024/02/18 11:13:03;;;;;;;4.90;3.43;;;10.10;99.90;;;;;;5064291;28;20501;-66
2024/02/18 11:15:28;;;;;;;10.70;6.80;;;10.40;99.90;;;;;;5064139;28;20451;-70
2024/02/18 11:17:55;;;;;;;6.83;4.60;;;10.40;99.90;;;;;;5064932;28;20425;-71
2024/02/18 11:20:22;;;;;;;8.53;3.03;;;10.60;99.90;;;;;;5054146;28;20170;-63
2024/02/18 11:22:50;;;;;;;8.77;4.30;;;10.70;99.90;;;;;;5059674;28;20499;-67
2024/02/18 11:25:17;;;;;;;15.20;9.30;;;11.00;99.90;;;;;;5061986;28;20447;-68
2024/02/18 11:27:43;;;;;;;10.10;4.07;;;10.90;99.90;;;;;;5062406;28;20413;-66
2024/02/18 11:30:10;;;;;;;7.70;4.10;;;10.50;99.90;;;;;;5060917;28;20425;-63
2024/02/18 11:32:36;;;;;;;5.77;3.47;;;10.40;99.90;;;;;;5058850;28;20453;-67
2024/02/18 11:35:14;;;;;;;10.80;3.50;;;10.30;99.90;;;;;;5059208;28;20560;-65
2024/02/18 11:37:42;;;;;;;6.50;4.43;;;10.40;99.90;;;;;;5060677;28;20444;-65
2024/02/18 11:40:18;;;;;;;6.47;4.00;;;10.30;99.90;;;;;;5067063;28;20551;-64
2024/02/18 11:42:45;;;;;;;6.37;4.20;;;10.60;99.90;;;;;;5062258;28;20435;-65
2024/02/18 11:45:19;;;;;;;5.80;5.03;;;10.50;99.90;;;;;;5068973;28;20447;-66
2024/02/18 11:47:50;;;;;;;6.93;5.50;;;10.60;99.90;;;;;;5060277;28;20447;-67
2024/02/18 11:50:17;;;;;;;6.03;3.80;;;10.50;99.90;;;;;;5060609;28;20421;-63
2024/02/18 11:52:45;;;;;;;10.50;5.10;;;10.40;99.90;;;;;;5067553;28;20517;-65
2024/02/18 11:55:19;;;;;;;7.70;5.03;;;10.60;99.90;;;;;;5071108;28;20532;-66
2024/02/18 11:57:46;;;;;;;10.23;4.93;;;10.60;99.90;;;;;;5072150;28;20439;-66
2024/02/18 12:00:13;;;;;;;7.47;5.03;;;10.60;99.90;;;;;;5070450;28;20758;-65
2024/02/18 12:02:41;;;;;;;4.40;4.00;;;10.70;99.90;;;;;;5071211;28;20515;-66
2024/02/18 12:05:10;;;;;;;7.93;5.73;;;10.70;99.90;;;;;;5069081;28;20429;-68
2024/02/18 12:07:38;;;;;;;6.97;4.50;;;10.50;99.90;;;;;;5070891;28;20462;-68
2024/02/18 12:10:04;;;;;;;7.33;4.50;;;10.60;99.90;;;;;;5070795;28;20516;-70
2024/02/18 12:12:31;;;;;;;6.93;4.23;;;10.70;99.90;;;;;;5066222;28;20539;-70
2024/02/18 12:14:57;;;;;;;61.67;26.67;;;10.80;99.90;;;;;;5066627;28;20992;-68
2024/02/18 12:17:23;;;;;;;40.53;16.77;;;10.80;99.90;;;;;;5062829;28;20416;-64
2024/02/18 12:19:50;;;;;;;11.30;4.90;;;11.10;99.90;;;;;;5072017;28;21091;-63
2024/02/18 12:22:27;;;;;;;7.97;4.97;;;11.30;99.90;;;;;;5062213;28;20675;-65
2024/02/18 12:24:54;;;;;;;6.40;4.20;;;11.30;99.90;;;;;;5070707;28;20968;-64
2024/02/18 12:27:20;;;;;;;7.63;4.70;;;11.40;99.90;;;;;;5064982;28;20435;-64
2024/02/18 12:29:47;;;;;;;7.10;4.63;;;11.40;99.90;;;;;;5071195;28;20883;-68
2024/02/18 12:32:13;;;;;;;7.40;4.87;;;11.30;99.90;;;;;;5070426;28;20417;-64
2024/02/18 12:34:40;;;;;;;7.77;4.10;;;11.30;99.90;;;;;;5070226;28;20476;-64
2024/02/18 12:37:06;;;;;;;6.60;5.13;;;11.50;99.90;;;;;;5068943;28;20420;-65
2024/02/18 12:39:32;;;;;;;6.80;4.73;;;11.60;99.90;;;;;;5070890;28;20437;-65
2024/02/18 12:42:01;;;;;;;9.57;4.83;;;11.50;99.90;;;;;;5071251;28;20830;-64
2024/02/18 12:44:27;;;;;;;10.37;5.67;;;11.60;99.90;;;;;;5071211;28;20428;-62
2024/02/18 12:46:57;;;;;;;6.80;4.10;;;11.50;99.90;;;;;;5070961;28;20428;-63
2024/02/18 12:49:23;;;;;;;8.83;4.60;;;11.50;99.90;;;;;;5070299;28;20447;-64
2024/02/18 12:51:49;;;;;;;7.70;4.33;;;11.60;99.90;;;;;;5069855;28;20470;-64